This is the latest recevied weather packets stored in our database for station/object VK3CG. If no packets are shown the sender has not sent any weather packets the latest 10 day(s).
| Time | Temp. | Humidity | Pressure | Rain* | Wind** | Luminosity | Snow |
|---|---|---|---|---|---|---|---|
| 1777699836 | 19.44° C | 42% | 1026 hPa | 0 mm | - | 79 W/m² | - |
| 1777698934 | 19.44° C | 41% | 1026.2 hPa | 0 mm | - | 171 W/m² | - |
| 1777698032 | 20° C | 41% | 1026.3 hPa | 0 mm | - | 130 W/m² | - |
| 1777697131 | 20° C | 41% | 1026.4 hPa | 0 mm | - | 134 W/m² | - |
| 1777696229 | 19.44° C | 43% | 1026.4 hPa | 0 mm | - | 155 W/m² | - |
| 1777695344 | 19.44° C | 43% | 1026.6 hPa | 0 mm | - | 137 W/m² | - |
| 1777694444 | 20° C | 41% | 1026.7 hPa | 0 mm | - | 230 W/m² | - |
| 1777693525 | 20° C | 43% | 1027 hPa | 0 mm | - | 446 W/m² | - |
| 1777692629 | 19.44° C | 44% | 1027.3 hPa | 0 mm | - | 352 W/m² | - |
| 1777691719 | 18.89° C | 46% | 1027.6 hPa | 0 mm | - | 260 W/m² | - |
| 1777690818 | 18.89° C | 45% | 1027.9 hPa | 0 mm | - | 360 W/m² | - |
| 1777689916 | 18.89° C | 43% | 1028.1 hPa | 0 mm | - | 202 W/m² | - |
| 1777689027 | 19.44° C | 44% | 1028.3 hPa | 0 mm | - | 172 W/m² | - |
| 1777688111 | 18.89° C | 45% | 1028.7 hPa | 0 mm | - | 638 W/m² | - |
| 1777687210 | 18.33° C | 46% | 1029.1 hPa | 0 mm | - | 130 W/m² | - |
| 1777686306 | 17.78° C | 48% | 1029.2 hPa | 0 mm | - | 603 W/m² | - |
| 1777685404 | 18.33° C | 46% | 1029.4 hPa | 0 mm | - | 241 W/m² | - |
| 1777684568 | 17.22° C | 50% | 1029.6 hPa | 0 mm | - | 643 W/m² | - |
| 1777683657 | 16.67° C | 50% | 1029.8 hPa | 0 mm | - | 350 W/m² | - |
| 1777682755 | 16.11° C | 50% | 1030 hPa | 0 mm | - | 156 W/m² | - |
| 1777681855 | 16.11° C | 50% | 1030 hPa | 0 mm | - | 241 W/m² | - |
| 1777680959 | 16.11° C | 51% | 1030.1 hPa | 0 mm | - | 193 W/m² | - |
| 1777680060 | 15.56° C | 52% | 1030.2 hPa | 0 mm | - | 158 W/m² | - |
| 1777679149 | 15.56° C | 52% | 1030.2 hPa | 0 mm | - | 167 W/m² | - |
| 1777678263 | 15° C | 52% | 1030.3 hPa | 0 mm | - | 144 W/m² | - |
* Rain latest hour (hover to see other rain measurements)
** Current wind speed in m/s (hover to see current wind gust speed)